sensor_id;sensor_type;location;lat;lon;timestamp;pressure;altitude;pressure_sealevel;temperature;humidity
10921;BME280;5513;50.580;8.818;2023-09-08T00:01:33;99344.97;;;18.92;100.00
10921;BME280;5513;50.580;8.818;2023-09-08T00:04:20;99340.69;;;18.99;100.00
10921;BME280;5513;50.580;8.818;2023-09-08T00:07:07;99340.38;;;18.75;100.00
10921;BME280;5513;50.580;8.818;2023-09-08T00:09:54;99336.84;;;18.74;100.00
10921;BME280;5513;50.580;8.818;2023-09-08T00:12:41;99336.00;;;18.74;100.00
10921;BME280;5513;50.580;8.818;2023-09-08T00:15:28;99329.50;;;18.67;100.00
10921;BME280;5513;50.580;8.818;2023-09-08T00:18:16;99331.34;;;18.56;100.00
10921;BME280;5513;50.580;8.818;2023-09-08T00:21:03;99331.75;;;18.71;100.00
10921;BME280;5513;50.580;8.818;2023-09-08T00:23:50;99327.91;;;18.83;100.00
10921;BME280;5513;50.580;8.818;2023-09-08T00:26:37;99334.53;;;18.79;100.00
10921;BME280;5513;50.580;8.818;2023-09-08T00:29:24;99327.50;;;18.78;100.00
10921;BME280;5513;50.580;8.818;2023-09-08T00:32:11;99322.84;;;18.61;100.00
10921;BME280;5513;50.580;8.818;2023-09-08T00:34:59;99324.53;;;18.72;100.00
10921;BME280;5513;50.580;8.818;2023-09-08T00:37:46;99335.22;;;18.91;100.00
10921;BME280;5513;50.580;8.818;2023-09-08T00:40:33;99327.75;;;18.85;100.00
10921;BME280;5513;50.580;8.818;2023-09-08T00:43:20;99323.44;;;18.65;100.00
10921;BME280;5513;50.580;8.818;2023-09-08T00:46:08;99325.81;;;18.58;100.00
10921;BME280;5513;50.580;8.818;2023-09-08T00:48:55;99327.81;;;18.56;100.00
10921;BME280;5513;50.580;8.818;2023-09-08T00:51:44;99330.41;;;18.19;100.00
10921;BME280;5513;50.580;8.818;2023-09-08T00:54:31;99341.41;;;18.25;100.00
10921;BME280;5513;50.580;8.818;2023-09-08T00:57:17;99329.84;;;18.25;100.00
10921;BME280;5513;50.580;8.818;2023-09-08T01:00:05;99327.88;;;18.17;100.00
10921;BME280;5513;50.580;8.818;2023-09-08T01:02:53;99341.28;;;18.17;100.00
10921;BME280;5513;50.580;8.818;2023-09-08T01:05:40;99329.28;;;18.02;100.00
10921;BME280;5513;50.580;8.818;2023-09-08T01:08:28;99331.69;;;18.15;100.00
10921;BME280;5513;50.580;8.818;2023-09-08T01:11:16;99330.41;;;17.99;100.00
10921;BME280;5513;50.580;8.818;2023-09-08T01:14:04;99326.75;;;18.00;100.00
10921;BME280;5513;50.580;8.818;2023-09-08T01:16:53;99332.66;;;18.14;100.00
10921;BME280;5513;50.580;8.818;2023-09-08T01:19:41;99334.63;;;18.21;100.00
10921;BME280;5513;50.580;8.818;2023-09-08T01:22:40;99331.25;;;18.19;100.00
10921;BME280;5513;50.580;8.818;2023-09-08T01:25:35;99333.25;;;18.17;100.00
10921;BME280;5513;50.580;8.818;2023-09-08T01:28:24;99337.91;;;18.15;100.00
10921;BME280;5513;50.580;8.818;2023-09-08T01:31:11;99334.78;;;18.00;100.00
10921;BME280;5513;50.580;8.818;2023-09-08T01:34:00;99336.47;;;18.01;100.00
10921;BME280;5513;50.580;8.818;2023-09-08T01:36:50;99334.94;;;18.09;100.00
10921;BME280;5513;50.580;8.818;2023-09-08T01:39:37;99338.16;;;17.93;100.00
10921;BME280;5513;50.580;8.818;2023-09-08T01:42:25;99325.75;;;17.92;100.00
10921;BME280;5513;50.580;8.818;2023-09-08T01:45:11;99321.81;;;17.77;100.00
10921;BME280;5513;50.580;8.818;2023-09-08T01:48:00;99327.44;;;17.83;100.00
10921;BME280;5513;50.580;8.818;2023-09-08T01:50:47;99326.75;;;17.81;100.00
10921;BME280;5513;50.580;8.818;2023-09-08T01:53:34;99325.59;;;18.03;100.00
10921;BME280;5513;50.580;8.818;2023-09-08T01:56:21;99327.59;;;17.91;100.00
10921;BME280;5513;50.580;8.818;2023-09-08T01:59:10;99324.75;;;17.83;100.00
10921;BME280;5513;50.580;8.818;2023-09-08T02:01:57;99325.16;;;17.69;100.00
10921;BME280;5513;50.580;8.818;2023-09-08T02:04:44;99332.88;;;17.53;100.00
10921;BME280;5513;50.580;8.818;2023-09-08T02:07:31;99332.88;;;17.53;100.00
10921;BME280;5513;50.580;8.818;2023-09-08T02:10:18;99328.63;;;17.50;100.00
10921;BME280;5513;50.580;8.818;2023-09-08T02:13:06;99324.66;;;17.44;100.00
10921;BME280;5513;50.580;8.818;2023-09-08T02:15:54;99335.88;;;17.69;100.00
10921;BME280;5513;50.580;8.818;2023-09-08T02:18:41;99328.38;;;17.63;100.00
10921;BME280;5513;50.580;8.818;2023-09-08T02:21:28;99330.34;;;17.51;100.00
10921;BME280;5513;50.580;8.818;2023-09-08T02:24:15;99328.34;;;17.53;100.00
10921;BME280;5513;50.580;8.818;2023-09-08T02:27:03;99334.00;;;17.50;100.00
10921;BME280;5513;50.580;8.818;2023-09-08T02:29:50;99335.16;;;17.57;100.00
10921;BME280;5513;50.580;8.818;2023-09-08T02:32:38;99332.09;;;17.71;100.00
10921;BME280;5513;50.580;8.818;2023-09-08T02:35:29;99323.34;;;17.79;100.00
10921;BME280;5513;50.580;8.818;2023-09-08T02:38:17;99319.69;;;17.99;100.00
10921;BME280;5513;50.580;8.818;2023-09-08T02:41:05;99316.31;;;17.97;100.00
10921;BME280;5513;50.580;8.818;2023-09-08T02:43:52;99314.88;;;18.03;100.00
10921;BME280;5513;50.580;8.818;2023-09-08T02:46:39;99316.44;;;17.77;100.00
10921;BME280;5513;50.580;8.818;2023-09-08T02:49:29;99317.00;;;17.70;100.00
10921;BME280;5513;50.580;8.818;2023-09-08T02:52:15;99316.28;;;17.68;100.00
10921;BME280;5513;50.580;8.818;2023-09-08T02:55:05;99316.91;;;17.41;100.00
10921;BME280;5513;50.580;8.818;2023-09-08T02:57:52;99324.28;;;17.49;100.00
10921;BME280;5513;50.580;8.818;2023-09-08T03:00:39;99322.47;;;17.59;100.00
10921;BME280;5513;50.580;8.818;2023-09-08T03:03:26;99321.06;;;17.74;100.00
10921;BME280;5513;50.580;8.818;2023-09-08T03:06:18;99320.78;;;17.58;100.00
10921;BME280;5513;50.580;8.818;2023-09-08T03:09:06;99316.63;;;17.35;100.00
10921;BME280;5513;50.580;8.818;2023-09-08T03:11:53;99314.91;;;17.34;100.00
10921;BME280;5513;50.580;8.818;2023-09-08T03:14:40;99311.13;;;17.36;100.00
10921;BME280;5513;50.580;8.818;2023-09-08T03:17:27;99315.22;;;17.31;100.00
10921;BME280;5513;50.580;8.818;2023-09-08T03:20:14;99319.94;;;17.17;100.00
10921;BME280;5513;50.580;8.818;2023-09-08T03:23:03;99318.34;;;17.05;100.00
10921;BME280;5513;50.580;8.818;2023-09-08T03:25:50;99324.38;;;16.98;100.00
10921;BME280;5513;50.580;8.818;2023-09-08T03:28:37;99323.91;;;16.83;100.00
10921;BME280;5513;50.580;8.818;2023-09-08T03:31:25;99335.69;;;16.71;100.00
10921;BME280;5513;50.580;8.818;2023-09-08T03:34:14;99333.50;;;16.85;100.00
10921;BME280;5513;50.580;8.818;2023-09-08T03:37:01;99335.59;;;16.82;100.00
10921;BME280;5513;50.580;8.818;2023-09-08T03:39:49;99331.69;;;16.96;100.00
10921;BME280;5513;50.580;8.818;2023-09-08T03:42:36;99326.44;;;16.84;100.00
10921;BME280;5513;50.580;8.818;2023-09-08T03:45:23;99320.34;;;16.73;100.00
10921;BME280;5513;50.580;8.818;2023-09-08T03:48:10;99324.94;;;16.92;100.00
10921;BME280;5513;50.580;8.818;2023-09-08T03:50:58;99331.59;;;16.76;100.00
10921;BME280;5513;50.580;8.818;2023-09-08T03:53:45;99332.03;;;16.72;100.00
10921;BME280;5513;50.580;8.818;2023-09-08T03:56:34;99335.00;;;16.78;100.00
10921;BME280;5513;50.580;8.818;2023-09-08T03:59:21;99333.31;;;16.77;100.00
10921;BME280;5513;50.580;8.818;2023-09-08T04:02:08;99347.00;;;17.14;100.00
10921;BME280;5513;50.580;8.818;2023-09-08T04:04:55;99335.19;;;17.27;100.00
10921;BME280;5513;50.580;8.818;2023-09-08T04:07:42;99343.06;;;17.19;100.00
10921;BME280;5513;50.580;8.818;2023-09-08T04:10:30;99340.47;;;17.07;100.00
10921;BME280;5513;50.580;8.818;2023-09-08T04:13:18;99337.66;;;16.78;100.00
10921;BME280;5513;50.580;8.818;2023-09-08T04:16:05;99336.81;;;16.78;100.00
10921;BME280;5513;50.580;8.818;2023-09-08T04:18:52;99338.66;;;16.56;100.00
10921;BME280;5513;50.580;8.818;2023-09-08T04:21:41;99337.84;;;16.66;100.00
10921;BME280;5513;50.580;8.818;2023-09-08T04:24:28;99341.38;;;16.66;100.00
10921;BME280;5513;50.580;8.818;2023-09-08T04:27:15;99343.72;;;16.59;100.00
10921;BME280;5513;50.580;8.818;2023-09-08T04:30:03;99340.81;;;16.63;100.00
10921;BME280;5513;50.580;8.818;2023-09-08T04:32:51;99344.53;;;16.50;100.00
10921;BME280;5513;50.580;8.818;2023-09-08T04:35:38;99343.00;;;16.57;100.00
10921;BME280;5513;50.580;8.818;2023-09-08T04:38:25;99344.00;;;16.56;100.00
10921;BME280;5513;50.580;8.818;2023-09-08T04:41:12;99348.66;;;16.75;100.00
10921;BME280;5513;50.580;8.818;2023-09-08T04:43:59;99337.38;;;16.72;100.00
10921;BME280;5513;50.580;8.818;2023-09-08T04:46:48;99344.47;;;16.82;100.00
10921;BME280;5513;50.580;8.818;2023-09-08T04:49:35;99344.72;;;16.58;100.00
10921;BME280;5513;50.580;8.818;2023-09-08T04:52:22;99351.22;;;16.66;100.00
10921;BME280;5513;50.580;8.818;2023-09-08T04:55:10;99352.44;;;16.73;100.00
10921;BME280;5513;50.580;8.818;2023-09-08T04:57:56;99353.34;;;16.83;100.00
10921;BME280;5513;50.580;8.818;2023-09-08T05:00:43;99350.19;;;16.57;100.00
10921;BME280;5513;50.580;8.818;2023-09-08T05:03:32;99370.19;;;16.21;100.00
10921;BME280;5513;50.580;8.818;2023-09-08T05:06:19;99367.50;;;16.00;100.00
10921;BME280;5513;50.580;8.818;2023-09-08T05:09:06;99371.63;;;16.04;100.00
10921;BME280;5513;50.580;8.818;2023-09-08T05:11:53;99372.34;;;16.06;100.00
10921;BME280;5513;50.580;8.818;2023-09-08T05:14:40;99375.31;;;16.24;100.00
10921;BME280;5513;50.580;8.818;2023-09-08T05:17:27;99380.31;;;16.17;100.00
10921;BME280;5513;50.580;8.818;2023-09-08T05:20:16;99377.41;;;16.41;100.00
10921;BME280;5513;50.580;8.818;2023-09-08T05:23:03;99381.03;;;16.40;100.00
10921;BME280;5513;50.580;8.818;2023-09-08T05:25:50;99382.56;;;16.54;100.00
10921;BME280;5513;50.580;8.818;2023-09-08T05:28:37;99381.38;;;16.47;100.00
10921;BME280;5513;50.580;8.818;2023-09-08T05:31:25;99372.63;;;16.45;100.00
10921;BME280;5513;50.580;8.818;2023-09-08T05:34:12;99378.69;;;16.68;100.00
10921;BME280;5513;50.580;8.818;2023-09-08T05:37:01;99374.28;;;16.78;100.00
10921;BME280;5513;50.580;8.818;2023-09-08T05:39:48;99379.63;;;16.57;100.00
10921;BME280;5513;50.580;8.818;2023-09-08T05:42:35;99378.59;;;16.69;100.00
10921;BME280;5513;50.580;8.818;2023-09-08T05:45:22;99372.06;;;16.83;100.00
10921;BME280;5513;50.580;8.818;2023-09-08T05:48:11;99376.56;;;16.82;100.00
10921;BME280;5513;50.580;8.818;2023-09-08T05:50:58;99376.00;;;17.09;100.00
10921;BME280;5513;50.580;8.818;2023-09-08T05:53:46;99371.31;;;17.02;100.00
10921;BME280;5513;50.580;8.818;2023-09-08T05:56:33;99371.09;;;16.84;100.00
10921;BME280;5513;50.580;8.818;2023-09-08T05:59:20;99378.44;;;16.92;100.00
10921;BME280;5513;50.580;8.818;2023-09-08T06:02:07;99383.06;;;17.10;100.00
10921;BME280;5513;50.580;8.818;2023-09-08T06:04:54;99380.66;;;17.48;100.00
10921;BME280;5513;50.580;8.818;2023-09-08T06:07:41;99378.22;;;17.44;100.00
10921;BME280;5513;50.580;8.818;2023-09-08T06:10:49;99382.88;;;17.42;100.00
10921;BME280;5513;50.580;8.818;2023-09-08T06:13:38;99375.88;;;17.51;100.00
10921;BME280;5513;50.580;8.818;2023-09-08T06:16:24;74905.97;;;17.62;100.00
10921;BME280;5513;50.580;8.818;2023-09-08T06:19:12;-16319.94;;;17.74;100.00
10921;BME280;5513;50.580;8.818;2023-09-08T06:21:59;99370.44;;;17.72;100.00
10921;BME280;5513;50.580;8.818;2023-09-08T06:24:46;99374.56;;;17.76;100.00
10921;BME280;5513;50.580;8.818;2023-09-08T06:27:35;99371.69;;;17.68;100.00
10921;BME280;5513;50.580;8.818;2023-09-08T06:30:22;99378.34;;;17.83;100.00
10921;BME280;5513;50.580;8.818;2023-09-08T06:33:09;99367.66;;;18.12;100.00
10921;BME280;5513;50.580;8.818;2023-09-08T06:35:57;99370.19;;;18.04;100.00
10921;BME280;5513;50.580;8.818;2023-09-08T06:38:44;99369.78;;;18.18;100.00
10921;BME280;5513;50.580;8.818;2023-09-08T06:41:30;99370.78;;;18.27;100.00
10921;BME280;5513;50.580;8.818;2023-09-08T06:44:21;99373.84;;;18.51;100.00
10921;BME280;5513;50.580;8.818;2023-09-08T06:47:08;99384.56;;;18.61;100.00
10921;BME280;5513;50.580;8.818;2023-09-08T06:49:55;99381.88;;;18.80;100.00
10921;BME280;5513;50.580;8.818;2023-09-08T06:52:43;99374.56;;;18.73;100.00
10921;BME280;5513;50.580;8.818;2023-09-08T06:55:30;99370.19;;;19.09;100.00
10921;BME280;5513;50.580;8.818;2023-09-08T06:58:17;99369.91;;;19.12;100.00
10921;BME280;5513;50.580;8.818;2023-09-08T07:01:06;99369.47;;;19.16;100.00
10921;BME280;5513;50.580;8.818;2023-09-08T07:03:54;99372.59;;;19.39;100.00
10921;BME280;5513;50.580;8.818;2023-09-08T07:06:40;99372.13;;;19.54;100.00
10921;BME280;5513;50.580;8.818;2023-09-08T07:09:30;99360.06;;;19.85;100.00
10921;BME280;5513;50.580;8.818;2023-09-08T07:12:17;99360.91;;;20.04;100.00
10921;BME280;5513;50.580;8.818;2023-09-08T07:15:05;99359.81;;;20.32;100.00
10921;BME280;5513;50.580;8.818;2023-09-08T07:17:53;99360.06;;;20.56;100.00
10921;BME280;5513;50.580;8.818;2023-09-08T07:20:41;99357.13;;;20.68;100.00
10921;BME280;5513;50.580;8.818;2023-09-08T07:23:32;99355.28;;;20.94;100.00
10921;BME280;5513;50.580;8.818;2023-09-08T07:26:21;99350.25;;;20.99;100.00
10921;BME280;5513;50.580;8.818;2023-09-08T07:29:07;99358.50;;;21.32;100.00
10921;BME280;5513;50.580;8.818;2023-09-08T07:31:54;99349.00;;;21.54;100.00
10921;BME280;5513;50.580;8.818;2023-09-08T07:34:43;99345.69;;;21.76;100.00
10921;BME280;5513;50.580;8.818;2023-09-08T07:37:30;99343.53;;;21.96;100.00
10921;BME280;5513;50.580;8.818;2023-09-08T07:40:17;99349.28;;;22.01;100.00
10921;BME280;5513;50.580;8.818;2023-09-08T07:43:04;99347.81;;;22.15;100.00
10921;BME280;5513;50.580;8.818;2023-09-08T07:45:51;99350.00;;;22.52;100.00
10921;BME280;5513;50.580;8.818;2023-09-08T07:48:38;99349.97;;;22.76;100.00
10921;BME280;5513;50.580;8.818;2023-09-08T07:51:27;99342.50;;;23.03;100.00
10921;BME280;5513;50.580;8.818;2023-09-08T07:54:14;99344.66;;;23.16;100.00
10921;BME280;5513;50.580;8.818;2023-09-08T07:57:04;99348.44;;;23.46;100.00
10921;BME280;5513;50.580;8.818;2023-09-08T07:59:51;99347.53;;;23.61;100.00
10921;BME280;5513;50.580;8.818;2023-09-08T08:02:41;99348.28;;;23.78;100.00
10921;BME280;5513;50.580;8.818;2023-09-08T08:05:29;99343.06;;;23.99;100.00
10921;BME280;5513;50.580;8.818;2023-09-08T08:08:17;99349.56;;;23.90;100.00
10921;BME280;5513;50.580;8.818;2023-09-08T08:11:09;99349.50;;;24.21;100.00
10921;BME280;5513;50.580;8.818;2023-09-08T08:13:55;99345.69;;;24.39;100.00
10921;BME280;5513;50.580;8.818;2023-09-08T08:16:43;99344.78;;;24.46;100.00
10921;BME280;5513;50.580;8.818;2023-09-08T08:19:30;99352.09;;;24.61;100.00
10921;BME280;5513;50.580;8.818;2023-09-08T08:22:17;99347.88;;;24.58;100.00
10921;BME280;5513;50.580;8.818;2023-09-08T08:25:06;99347.28;;;24.86;99.61
10921;BME280;5513;50.580;8.818;2023-09-08T08:27:57;99352.31;;;24.89;99.71
10921;BME280;5513;50.580;8.818;2023-09-08T08:30:45;99356.56;;;25.06;96.25
10921;BME280;5513;50.580;8.818;2023-09-08T08:33:33;99346.13;;;24.80;93.64
10921;BME280;5513;50.580;8.818;2023-09-08T08:36:20;99347.16;;;24.64;93.51
10921;BME280;5513;50.580;8.818;2023-09-08T08:39:07;99347.00;;;24.80;93.40
10921;BME280;5513;50.580;8.818;2023-09-08T08:41:56;99347.94;;;24.73;88.12
10921;BME280;5513;50.580;8.818;2023-09-08T08:44:43;99347.94;;;24.73;88.12
10921;BME280;5513;50.580;8.818;2023-09-08T08:47:31;99334.75;;;24.99;88.75
10921;BME280;5513;50.580;8.818;2023-09-08T08:50:18;99338.63;;;25.05;91.81
10921;BME280;5513;50.580;8.818;2023-09-08T08:53:06;99340.41;;;25.27;91.11
10921;BME280;5513;50.580;8.818;2023-09-08T08:55:55;99342.75;;;25.30;88.32
10921;BME280;5513;50.580;8.818;2023-09-08T08:58:44;99342.03;;;25.73;87.16
10921;BME280;5513;50.580;8.818;2023-09-08T09:01:32;99339.59;;;25.63;90.36
10921;BME280;5513;50.580;8.818;2023-09-08T09:04:19;99344.34;;;25.90;87.10
10921;BME280;5513;50.580;8.818;2023-09-08T09:07:07;99341.97;;;25.51;88.99
10921;BME280;5513;50.580;8.818;2023-09-08T09:09:55;99342.03;;;25.87;90.04
10921;BME280;5513;50.580;8.818;2023-09-08T09:12:42;99341.44;;;26.13;86.14
10921;BME280;5513;50.580;8.818;2023-09-08T09:15:31;99335.56;;;26.10;83.73
10921;BME280;5513;50.580;8.818;2023-09-08T09:18:19;99336.91;;;26.20;83.98
10921;BME280;5513;50.580;8.818;2023-09-08T09:21:07;99331.34;;;26.29;80.51
10921;BME280;5513;50.580;8.818;2023-09-08T09:23:54;99326.69;;;26.44;79.60
10921;BME280;5513;50.580;8.818;2023-09-08T09:26:41;99334.38;;;26.62;79.14
10921;BME280;5513;50.580;8.818;2023-09-08T09:29:28;99330.53;;;27.05;77.92
10921;BME280;5513;50.580;8.818;2023-09-08T09:32:17;99331.94;;;27.36;74.73
10921;BME280;5513;50.580;8.818;2023-09-08T09:35:09;99331.31;;;27.41;73.51
10921;BME280;5513;50.580;8.818;2023-09-08T09:37:56;99325.88;;;27.82;71.99
10921;BME280;5513;50.580;8.818;2023-09-08T09:40:43;99323.00;;;27.49;74.35
10921;BME280;5513;50.580;8.818;2023-09-08T09:43:30;99329.66;;;27.81;72.03
10921;BME280;5513;50.580;8.818;2023-09-08T09:46:17;99332.44;;;28.14;72.81
10921;BME280;5513;50.580;8.818;2023-09-08T09:49:10;99328.88;;;28.13;72.12
10921;BME280;5513;50.580;8.818;2023-09-08T09:51:58;99329.53;;;28.35;70.96
10921;BME280;5513;50.580;8.818;2023-09-08T09:54:45;99341.88;;;29.17;66.70
10921;BME280;5513;50.580;8.818;2023-09-08T09:57:32;99331.34;;;29.34;62.91
10921;BME280;5513;50.580;8.818;2023-09-08T10:00:19;99331.44;;;28.88;65.13
10921;BME280;5513;50.580;8.818;2023-09-08T10:03:06;99327.47;;;28.77;64.74
10921;BME280;5513;50.580;8.818;2023-09-08T10:05:56;99327.38;;;29.23;64.07
10921;BME280;5513;50.580;8.818;2023-09-08T10:08:44;99328.00;;;29.25;63.11
10921;BME280;5513;50.580;8.818;2023-09-08T10:11:34;99321.00;;;29.43;64.10
10921;BME280;5513;50.580;8.818;2023-09-08T10:14:25;99325.28;;;29.77;61.37
10921;BME280;5513;50.580;8.818;2023-09-08T10:17:15;99320.94;;;30.89;56.92
10921;BME280;5513;50.580;8.818;2023-09-08T10:20:08;99314.63;;;31.61;52.55
10921;BME280;5513;50.580;8.818;2023-09-08T10:23:04;99319.38;;;33.78;45.75
10921;BME280;5513;50.580;8.818;2023-09-08T10:25:57;99314.34;;;34.83;42.84
10921;BME280;5513;50.580;8.818;2023-09-08T10:28:48;99310.91;;;36.88;37.56
10921;BME280;5513;50.580;8.818;2023-09-08T10:31:36;99317.63;;;37.02;36.96
10921;BME280;5513;50.580;8.818;2023-09-08T10:34:24;99312.25;;;39.12;33.36
10921;BME280;5513;50.580;8.818;2023-09-08T10:37:21;99314.72;;;39.24;33.33
10921;BME280;5513;50.580;8.818;2023-09-08T10:40:22;99312.06;;;40.13;32.02
10921;BME280;5513;50.580;8.818;2023-09-08T10:43:09;99303.03;;;39.92;31.95
10921;BME280;5513;50.580;8.818;2023-09-08T10:45:58;99298.66;;;39.21;32.87
10921;BME280;5513;50.580;8.818;2023-09-08T10:48:45;99298.97;;;39.79;31.71
10921;BME280;5513;50.580;8.818;2023-09-08T10:51:31;99296.91;;;39.95;30.78
10921;BME280;5513;50.580;8.818;2023-09-08T10:54:40;99298.47;;;41.08;30.18
10921;BME280;5513;50.580;8.818;2023-09-08T10:57:29;99292.34;;;42.67;28.03
10921;BME280;5513;50.580;8.818;2023-09-08T11:00:19;99295.88;;;41.84;28.63
10921;BME280;5513;50.580;8.818;2023-09-08T11:03:06;99287.19;;;43.84;27.08
10921;BME280;5513;50.580;8.818;2023-09-08T11:05:53;99286.72;;;42.53;28.29
10921;BME280;5513;50.580;8.818;2023-09-08T11:08:41;99289.69;;;42.90;27.80
10921;BME280;5513;50.580;8.818;2023-09-08T11:11:33;99294.25;;;42.53;28.10
10921;BME280;5513;50.580;8.818;2023-09-08T11:14:22;99279.00;;;39.77;31.28
10921;BME280;5513;50.580;8.818;2023-09-08T11:17:13;99282.31;;;42.34;28.73
10921;BME280;5513;50.580;8.818;2023-09-08T11:20:01;99283.72;;;43.10;27.53
10921;BME280;5513;50.580;8.818;2023-09-08T11:22:54;99283.19;;;42.48;28.51
10921;BME280;5513;50.580;8.818;2023-09-08T11:25:41;99275.25;;;43.42;27.23
10921;BME280;5513;50.580;8.818;2023-09-08T11:28:28;99273.72;;;42.95;27.83
10921;BME280;5513;50.580;8.818;2023-09-08T11:31:16;99282.97;;;43.32;27.25
10921;BME280;5513;50.580;8.818;2023-09-08T11:34:04;99273.50;;;43.05;27.03
10921;BME280;5513;50.580;8.818;2023-09-08T11:36:51;99266.44;;;41.78;28.65
10921;BME280;5513;50.580;8.818;2023-09-08T11:39:39;99260.53;;;44.01;26.60
10921;BME280;5513;50.580;8.818;2023-09-08T11:42:27;99257.44;;;44.78;26.03
10921;BME280;5513;50.580;8.818;2023-09-08T11:45:14;99260.88;;;45.06;25.76
10921;BME280;5513;50.580;8.818;2023-09-08T11:48:05;99253.81;;;45.74;24.95
10921;BME280;5513;50.580;8.818;2023-09-08T11:50:53;99254.66;;;45.75;24.76
10921;BME280;5513;50.580;8.818;2023-09-08T11:53:41;99256.16;;;46.15;24.40
10921;BME280;5513;50.580;8.818;2023-09-08T11:56:28;99252.19;;;45.99;24.48
10921;BME280;5513;50.580;8.818;2023-09-08T11:59:15;99254.66;;;46.18;24.61
10921;BME280;5513;50.580;8.818;2023-09-08T12:02:02;99257.38;;;46.61;24.00
10921;BME280;5513;50.580;8.818;2023-09-08T12:04:53;99252.16;;;46.34;23.30
10921;BME280;5513;50.580;8.818;2023-09-08T12:07:39;99256.41;;;45.45;24.17
10921;BME280;5513;50.580;8.818;2023-09-08T12:10:26;99249.72;;;45.15;24.38
10921;BME280;5513;50.580;8.818;2023-09-08T12:13:20;99244.09;;;44.44;25.06
10921;BME280;5513;50.580;8.818;2023-09-08T12:16:17;99254.28;;;44.62;25.88
10921;BME280;5513;50.580;8.818;2023-09-08T12:19:04;99250.13;;;45.30;24.42
10921;BME280;5513;50.580;8.818;2023-09-08T12:21:59;99241.28;;;45.63;23.93
10921;BME280;5513;50.580;8.818;2023-09-08T12:24:50;99237.13;;;45.34;24.79
10921;BME280;5513;50.580;8.818;2023-09-08T12:27:44;99239.16;;;47.94;22.55
10921;BME280;5513;50.580;8.818;2023-09-08T12:30:31;99229.63;;;46.77;23.19
10921;BME280;5513;50.580;8.818;2023-09-08T12:33:19;99229.00;;;47.39;22.78
10921;BME280;5513;50.580;8.818;2023-09-08T12:36:10;99223.06;;;47.61;22.44
10921;BME280;5513;50.580;8.818;2023-09-08T12:38:59;99220.84;;;46.87;22.74
10921;BME280;5513;50.580;8.818;2023-09-08T12:41:46;99226.91;;;46.51;23.04
10921;BME280;5513;50.580;8.818;2023-09-08T12:44:33;99220.72;;;44.93;23.92
10921;BME280;5513;50.580;8.818;2023-09-08T12:47:20;99214.78;;;46.76;22.82
10921;BME280;5513;50.580;8.818;2023-09-08T12:50:07;99215.09;;;47.22;22.52
10921;BME280;5513;50.580;8.818;2023-09-08T12:52:55;99206.00;;;46.87;22.15
10921;BME280;5513;50.580;8.818;2023-09-08T12:55:44;99202.47;;;46.98;22.64
10921;BME280;5513;50.580;8.818;2023-09-08T12:58:30;99209.00;;;45.57;23.49
10921;BME280;5513;50.580;8.818;2023-09-08T13:01:19;99202.63;;;47.52;22.18
10921;BME280;5513;50.580;8.818;2023-09-08T13:04:06;99185.63;;;46.98;21.27
10921;BME280;5513;50.580;8.818;2023-09-08T13:06:53;99193.28;;;46.89;21.47
10921;BME280;5513;50.580;8.818;2023-09-08T13:09:40;99202.13;;;47.00;21.22
10921;BME280;5513;50.580;8.818;2023-09-08T13:12:28;99193.88;;;47.54;20.42
10921;BME280;5513;50.580;8.818;2023-09-08T13:15:16;99194.91;;;46.90;21.15
10921;BME280;5513;50.580;8.818;2023-09-08T13:18:03;99191.03;;;45.92;21.54
10921;BME280;5513;50.580;8.818;2023-09-08T13:20:50;99188.84;;;46.33;21.56
10921;BME280;5513;50.580;8.818;2023-09-08T13:23:37;99191.28;;;46.52;21.00
10921;BME280;5513;50.580;8.818;2023-09-08T13:26:24;99196.91;;;45.22;22.23
10921;BME280;5513;50.580;8.818;2023-09-08T13:29:12;99188.44;;;46.60;21.10
10921;BME280;5513;50.580;8.818;2023-09-08T13:31:59;99189.00;;;46.36;20.96
10921;BME280;5513;50.580;8.818;2023-09-08T13:34:46;99183.28;;;47.59;20.46
10921;BME280;5513;50.580;8.818;2023-09-08T13:37:33;99177.53;;;48.80;19.70
10921;BME280;5513;50.580;8.818;2023-09-08T13:40:20;99178.34;;;48.92;19.50
10921;BME280;5513;50.580;8.818;2023-09-08T13:43:07;99174.16;;;48.98;19.58
10921;BME280;5513;50.580;8.818;2023-09-08T13:45:56;99163.25;;;47.19;20.63
10921;BME280;5513;50.580;8.818;2023-09-08T13:48:43;99162.50;;;47.52;20.01
10921;BME280;5513;50.580;8.818;2023-09-08T13:51:31;99162.78;;;48.70;19.52
10921;BME280;5513;50.580;8.818;2023-09-08T13:54:19;99156.06;;;47.51;20.42
10921;BME280;5513;50.580;8.818;2023-09-08T13:57:09;99158.59;;;46.09;20.92
10921;BME280;5513;50.580;8.818;2023-09-08T13:59:59;99155.81;;;45.48;21.53
10921;BME280;5513;50.580;8.818;2023-09-08T14:02:55;99159.22;;;44.31;22.00
10921;BME280;5513;50.580;8.818;2023-09-08T14:05:44;99147.41;;;47.77;19.87
10921;BME280;5513;50.580;8.818;2023-09-08T14:08:38;99143.47;;;46.39;21.01
10921;BME280;5513;50.580;8.818;2023-09-08T14:11:44;99153.69;;;44.48;22.92
10921;BME280;5513;50.580;8.818;2023-09-08T14:14:34;99147.56;;;44.77;22.65
10921;BME280;5513;50.580;8.818;2023-09-08T14:17:21;99144.84;;;44.15;23.26
10921;BME280;5513;50.580;8.818;2023-09-08T14:20:11;99150.31;;;48.59;20.06
10921;BME280;5513;50.580;8.818;2023-09-08T14:22:57;99146.47;;;46.43;21.32
10921;BME280;5513;50.580;8.818;2023-09-08T14:25:44;99143.84;;;47.05;20.42
10921;BME280;5513;50.580;8.818;2023-09-08T14:28:32;99144.13;;;46.54;21.31
10921;BME280;5513;50.580;8.818;2023-09-08T14:31:19;99143.28;;;43.78;23.83
10921;BME280;5513;50.580;8.818;2023-09-08T14:34:06;99137.66;;;46.15;21.47
10921;BME280;5513;50.580;8.818;2023-09-08T14:36:54;99142.53;;;44.88;22.01
10921;BME280;5513;50.580;8.818;2023-09-08T14:39:41;99136.13;;;46.26;21.87
10921;BME280;5513;50.580;8.818;2023-09-08T14:42:28;99135.06;;;46.77;21.31
10921;BME280;5513;50.580;8.818;2023-09-08T14:45:15;99134.56;;;45.30;21.49
10921;BME280;5513;50.580;8.818;2023-09-08T14:48:02;99131.25;;;44.22;21.36
10921;BME280;5513;50.580;8.818;2023-09-08T14:50:49;99129.47;;;45.41;21.07
10921;BME280;5513;50.580;8.818;2023-09-08T14:53:37;99120.47;;;47.97;19.81
10921;BME280;5513;50.580;8.818;2023-09-08T14:56:24;99126.56;;;47.99;19.72